Time;durP1;ratioP1;P1;durP2;ratioP2;P2;SDS_P1;SDS_P2;PMS_P1;PMS_P2;Temp;Humidity;BMP_temperature;BMP_pressure;BME280_temperature;BME280_humidity;BME280_pressure;Samples;Min_cycle;Max_cycle;Signal;HPM_P1;HPM_P2
2023/12/05 00:02:04;;;;;;;4.85;3.03;;;;;;;8.06;50.21;99593.72;4951765;29;20418;-75
2023/12/05 00:04:30;;;;;;;5.38;3.60;;;;;;;8.10;50.16;99591.81;4936044;29;20039;-76
2023/12/05 00:06:55;;;;;;;5.63;3.10;;;;;;;8.11;50.23;99596.06;4951904;29;20034;-76
2023/12/05 00:09:21;;;;;;;5.38;3.40;;;;;;;8.11;50.52;99596.06;4938183;29;20039;-75
2023/12/05 00:11:46;;;;;;;5.18;3.20;;;;;;;8.06;50.69;99591.13;4955449;29;20058;-75
2023/12/05 00:14:12;;;;;;;4.25;3.17;;;;;;;8.09;50.03;99588.34;4955386;28;20091;-76
2023/12/05 00:16:37;;;;;;;7.00;3.70;;;;;;;8.09;50.14;99592.72;4955631;29;20102;-77
2023/12/05 00:19:03;;;;;;;5.00;3.13;;;;;;;8.10;50.50;99590.03;4939584;29;20503;-76
2023/12/05 00:21:28;;;;;;;4.22;3.08;;;;;;;8.06;50.41;99585.09;4939280;29;20102;-75
2023/12/05 00:23:54;;;;;;;5.55;3.72;;;;;;;8.05;50.35;99584.25;4921614;29;20103;-75
2023/12/05 00:26:20;;;;;;;6.28;3.33;;;;;;;8.08;50.38;99597.09;4923648;29;20442;-75
2023/12/05 00:28:45;;;;;;;6.00;3.30;;;;;;;8.02;50.34;99587.00;4923524;29;20073;-75
2023/12/05 00:31:11;;;;;;;5.35;3.38;;;;;;;8.09;50.64;99587.53;4952749;29;20047;-75
2023/12/05 00:33:36;;;;;;;4.95;3.50;;;;;;;8.04;50.16;99577.38;4957784;29;20031;-76
2023/12/05 00:36:02;;;;;;;6.70;3.55;;;;;;;8.09;50.28;99590.13;4940031;29;20062;-76
2023/12/05 00:38:28;;;;;;;4.90;3.42;;;;;;;8.09;50.46;99584.94;4955982;29;20032;-76
2023/12/05 00:40:53;;;;;;;5.13;3.38;;;;;;;8.09;50.33;99577.13;4956189;28;20067;-76
2023/12/05 00:43:19;;;;;;;5.15;3.28;;;;;;;8.07;50.57;99566.81;4940098;29;20412;-75
2023/12/05 00:45:44;;;;;;;6.30;3.50;;;;;;;8.08;50.39;99571.09;4955793;29;20027;-75
2023/12/05 00:48:09;;;;;;;4.70;3.50;;;;;;;8.04;51.02;99568.72;4956920;29;20039;-76
2023/12/05 00:50:35;;;;;;;5.45;3.58;;;;;;;8.08;50.78;99562.44;4923264;29;20105;-76
2023/12/05 00:53:01;;;;;;;6.07;3.60;;;;;;;8.06;50.29;99553.88;4955710;29;20471;-76
2023/12/05 00:55:26;;;;;;;6.28;3.63;;;;;;;8.07;50.75;99553.78;4957399;29;20051;-75
2023/12/05 00:57:52;;;;;;;4.53;3.22;;;;;;;8.05;50.57;99549.59;4956720;29;20063;-75
2023/12/05 01:00:17;;;;;;;5.50;3.70;;;;;;;8.07;50.99;99555.56;4955758;28;20043;-76
2023/12/05 01:02:43;;;;;;;7.10;3.75;;;;;;;8.08;51.02;99562.44;4939631;29;20121;-76
2023/12/05 01:05:09;;;;;;;6.78;3.35;;;;;;;8.03;50.91;99547.06;4956049;29;20039;-77
2023/12/05 01:07:35;;;;;;;5.68;3.90;;;;;;;8.07;50.98;99555.56;4955585;29;20114;-75
2023/12/05 01:10:02;;;;;;;6.78;4.03;;;;;;;8.04;50.54;99547.94;4955380;29;20038;-76
2023/12/05 01:12:28;;;;;;;6.68;4.07;;;;;;;8.07;50.88;99551.19;4955620;29;20062;-76
2023/12/05 01:14:53;;;;;;;7.68;4.28;;;;;;;8.07;50.50;99543.41;4939384;29;20518;-76
2023/12/05 01:17:19;;;;;;;6.72;4.30;;;;;;;8.09;50.95;99551.13;4939505;29;20039;-75
2023/12/05 01:19:44;;;;;;;8.27;4.85;;;;;;;8.07;51.08;99546.00;4955239;28;20031;-76
2023/12/05 01:22:10;;;;;;;7.07;4.10;;;;;;;8.08;51.61;99531.22;4970794;28;20098;-77
2023/12/05 01:24:35;;;;;;;6.40;4.25;;;;;;;8.08;50.92;99536.44;4939077;29;20039;-75
2023/12/05 01:27:02;;;;;;;6.22;4.07;;;;;;;8.05;51.41;99528.78;4956206;29;20027;-76
2023/12/05 01:29:28;;;;;;;6.60;4.25;;;;;;;8.03;51.10;99515.88;4955032;29;20067;-76
2023/12/05 01:31:53;;;;;;;6.35;4.35;;;;;;;8.03;51.12;99523.66;4955235;29;20122;-75
2023/12/05 01:34:18;;;;;;;6.18;4.30;;;;;;;8.07;51.19;99526.97;4940464;28;20043;-75
2023/12/05 01:36:44;;;;;;;6.88;4.53;;;;;;;8.00;51.58;99510.00;4954790;29;20105;-75
2023/12/05 01:39:12;;;;;;;7.10;4.50;;;;;;;8.06;51.30;99525.28;4939274;28;20058;-77
2023/12/05 01:41:38;;;;;;;7.53;4.75;;;;;;;8.05;51.54;99519.25;4970848;28;20035;-75
2023/12/05 01:44:03;;;;;;;7.15;4.82;;;;;;;8.03;51.57;99510.66;4970767;28;20491;-76
2023/12/05 01:46:30;;;;;;;6.32;4.22;;;;;;;8.03;51.46;99510.66;4954729;28;20109;-76
2023/12/05 01:48:56;;;;;;;6.43;4.72;;;;;;;8.05;52.02;99513.19;4954614;29;20027;-75
2023/12/05 01:51:21;;;;;;;8.98;5.03;;;;;;;7.97;52.18;99496.25;4954666;29;20409;-76
2023/12/05 01:53:48;;;;;;;8.38;4.93;;;;;;;7.96;51.81;99491.13;4954515;28;20430;-75
2023/12/05 01:56:13;;;;;;;8.25;4.88;;;;;;;7.99;52.07;99498.78;4954855;29;20020;-76
2023/12/05 01:58:39;;;;;;;8.07;4.88;;;;;;;7.93;52.01;99486.91;4954483;29;20038;-75
2023/12/05 02:01:05;;;;;;;6.68;4.45;;;;;;;8.00;52.48;99491.78;4956050;29;20031;-76
2023/12/05 02:03:31;;;;;;;7.43;5.05;;;;;;;8.03;52.31;99492.47;4938618;29;20035;-77
2023/12/05 02:05:57;;;;;;;7.97;5.10;;;;;;;8.02;52.79;99483.00;4954444;29;20034;-74
2023/12/05 02:08:22;;;;;;;8.07;5.28;;;;;;;7.99;52.68;99472.78;4938351;29;20039;-75
2023/12/05 02:10:48;;;;;;;8.07;5.32;;;;;;;8.01;52.31;99476.13;4938109;29;20392;-75
2023/12/05 02:13:13;;;;;;;8.43;5.47;;;;;;;8.01;52.19;99481.31;4939044;28;20134;-75
2023/12/05 02:15:39;;;;;;;8.90;5.55;;;;;;;7.96;52.86;99472.94;4954412;29;20427;-77
2023/12/05 02:18:13;;;;;;;7.85;5.22;;;;;;;7.97;52.56;99472.84;4954220;29;20063;-75
2023/12/05 02:20:57;;;;;;;10.27;5.43;;;;;;;7.96;52.77;99470.34;4938251;29;20031;-76
2023/12/05 02:23:44;;;;;;;8.80;5.40;;;;;;;7.94;52.99;99473.00;4954011;29;20035;-75
2023/12/05 02:26:22;;;;;;;12.05;6.18;;;;;;;7.91;53.13;99475.78;4955419;28;20419;-75
2023/12/05 02:28:47;;;;;;;8.50;5.80;;;;;;;7.90;52.91;99470.66;4955169;29;20039;-76
2023/12/05 02:31:13;;;;;;;8.20;5.45;;;;;;;7.85;52.81;99463.09;4953423;28;20035;-75
2023/12/05 02:33:38;;;;;;;10.80;6.15;;;;;;;7.88;53.17;99473.34;4953713;29;20043;-76
2023/12/05 02:36:14;;;;;;;10.15;6.30;;;;;;;7.86;53.43;99469.13;4938360;29;20058;-75
2023/12/05 02:38:48;;;;;;;9.27;5.72;;;;;;;7.81;53.41;99464.19;4937692;29;20035;-76
2023/12/05 02:41:22;;;;;;;9.38;5.82;;;;;;;7.84;53.30;99460.59;4938140;29;20094;-75
2023/12/05 02:44:09;;;;;;;9.20;6.20;;;;;;;7.81;53.57;99448.56;4937491;29;20043;-75
2023/12/05 02:46:35;;;;;;;11.18;5.80;;;;;;;7.83;53.44;99445.91;4938064;29;20082;-75
2023/12/05 02:49:01;;;;;;;9.00;5.90;;;;;;;7.84;53.71;99452.78;4953504;29;20035;-76
2023/12/05 02:51:26;;;;;;;10.98;6.28;;;;;;;7.84;54.27;99447.59;4969828;28;20027;-75
2023/12/05 02:53:52;;;;;;;11.07;6.07;;;;;;;7.81;54.01;99439.94;4953198;29;20118;-75
2023/12/05 02:56:18;;;;;;;10.82;5.93;;;;;;;7.82;54.29;99444.25;4953624;28;20074;-75
2023/12/05 02:58:43;;;;;;;14.05;6.40;;;;;;;7.77;54.44;99426.28;4953233;28;20101;-74
2023/12/05 03:01:09;;;;;;;10.10;5.75;;;;;;;7.77;54.04;99429.72;4938063;29;20039;-75
2023/12/05 03:03:34;;;;;;;9.60;6.32;;;;;;;7.76;54.11;99425.47;4953204;29;20399;-76
2023/12/05 03:06:00;;;;;;;9.30;5.65;;;;;;;7.78;54.21;99434.00;4953333;29;20125;-75
2023/12/05 03:08:25;;;;;;;9.68;6.25;;;;;;;7.77;54.66;99434.09;4953258;29;20034;-76
2023/12/05 03:10:51;;;;;;;9.52;5.85;;;;;;;7.73;54.57;99417.81;4953152;28;20027;-75
2023/12/05 03:13:17;;;;;;;9.77;6.22;;;;;;;7.71;54.58;99413.63;4937742;29;20043;-75
2023/12/05 03:15:42;;;;;;;11.05;6.57;;;;;;;7.76;54.96;99425.47;4953153;29;20037;-75
2023/12/05 03:18:07;;;;;;;10.40;6.32;;;;;;;7.74;54.90;99419.50;4953496;28;20062;-76
2023/12/05 03:20:33;;;;;;;10.45;5.90;;;;;;;7.74;54.71;99416.06;4953178;29;20035;-76
2023/12/05 03:22:58;;;;;;;10.43;6.10;;;;;;;7.70;54.84;99412.78;4937398;29;20074;-75
2023/12/05 03:25:24;;;;;;;11.85;6.70;;;;;;;7.74;54.82;99411.69;4953064;29;20036;-76
2023/12/05 03:27:49;;;;;;;11.68;7.00;;;;;;;7.76;55.26;99414.22;4952993;29;20046;-76
2023/12/05 03:30:15;;;;;;;13.73;6.97;;;;;;;7.77;55.01;99416.72;4937051;29;20038;-76
2023/12/05 03:32:40;;;;;;;12.43;6.30;;;;;;;7.77;55.13;99418.50;4953337;29;20062;-75
2023/12/05 03:35:06;;;;;;;12.90;6.22;;;;;;;7.74;55.18;99408.25;4969153;28;20031;-75
2023/12/05 03:37:31;;;;;;;13.77;6.38;;;;;;;7.78;55.27;99409.78;4952890;28;20093;-75
2023/12/05 03:39:57;;;;;;;11.38;6.68;;;;;;;7.79;55.16;99409.69;4969079;28;20035;-76
2023/12/05 03:42:22;;;;;;;13.65;6.70;;;;;;;7.79;55.49;99404.47;4953808;28;20035;-76
2023/12/05 03:44:48;;;;;;;12.18;6.47;;;;;;;7.78;55.33;99408.00;4957445;29;20032;-75
2023/12/05 03:47:13;;;;;;;11.82;6.38;;;;;;;7.73;55.28;99389.25;4957644;28;20050;-76
2023/12/05 03:49:39;;;;;;;10.73;6.32;;;;;;;7.81;55.38;99404.41;4972897;28;20027;-75
2023/12/05 03:52:05;;;;;;;13.32;6.80;;;;;;;7.76;55.31;99398.63;4956732;29;20035;-75
2023/12/05 03:54:31;;;;;;;11.27;6.55;;;;;;;7.76;55.73;99399.47;4956136;29;20135;-75
2023/12/05 03:56:56;;;;;;;10.80;6.35;;;;;;;7.79;55.97;99394.06;4957736;29;20411;-77
2023/12/05 03:59:22;;;;;;;10.40;6.65;;;;;;;7.82;55.38;99402.66;4972828;28;20030;-76
2023/12/05 04:01:47;;;;;;;11.52;6.50;;;;;;;7.79;55.61;99394.06;4956547;29;20024;-76
2023/12/05 04:04:13;;;;;;;10.90;6.18;;;;;;;7.83;55.98;99393.91;4940370;29;20047;-76
2023/12/05 04:06:38;;;;;;;9.65;5.53;;;;;;;7.83;55.90;99392.19;4940517;29;20510;-75
2023/12/05 04:09:04;;;;;;;11.05;6.18;;;;;;;7.84;56.07;99393.00;4971247;28;20031;-75
2023/12/05 04:11:33;;;;;;;11.25;6.35;;;;;;;7.86;56.08;99398.94;4955001;29;20039;-76
2023/12/05 04:13:59;;;;;;;12.68;7.03;;;;;;;7.81;55.81;99391.41;4955576;29;20035;-75
2023/12/05 04:16:25;;;;;;;11.68;6.35;;;;;;;7.85;56.11;99392.91;4939580;29;20581;-76
2023/12/05 04:18:50;;;;;;;13.13;7.35;;;;;;;7.86;55.88;99396.34;4939399;29;20035;-76
2023/12/05 04:21:17;;;;;;;10.82;6.43;;;;;;;7.86;55.94;99398.94;4939391;29;20031;-76
2023/12/05 04:23:43;;;;;;;10.35;6.95;;;;;;;7.86;56.31;99399.81;4938922;29;20031;-75
2023/12/05 04:26:08;;;;;;;11.90;7.07;;;;;;;7.82;56.01;99384.47;4924603;29;20415;-76
2023/12/05 04:28:33;;;;;;;11.23;6.53;;;;;;;7.84;56.34;99382.59;4939245;29;20057;-76
2023/12/05 04:30:59;;;;;;;11.68;6.97;;;;;;;7.87;56.49;99391.06;4922902;29;20042;-75
2023/12/05 04:33:24;;;;;;;10.68;6.18;;;;;;;7.86;56.44;99392.00;4938779;29;20495;-77
2023/12/05 04:35:50;;;;;;;13.25;7.03;;;;;;;7.87;56.55;99395.44;4923085;29;20119;-79
2023/12/05 04:38:16;;;;;;;12.45;7.18;;;;;;;7.87;56.40;99392.84;4954636;28;20503;-78
2023/12/05 04:40:42;;;;;;;11.63;7.22;;;;;;;7.89;56.35;99393.59;4923000;28;20071;-83
2023/12/05 04:43:07;;;;;;;11.27;6.50;;;;;;;7.89;56.19;99390.97;4923434;29;20051;-85
2023/12/05 04:45:33;;;;;;;8.70;5.53;;;;;;;7.85;56.31;99384.28;4956750;28;20384;-87
2023/12/05 04:47:58;;;;;;;11.88;5.88;;;;;;;7.89;56.79;99396.19;4944761;29;20063;-83
2023/12/05 04:50:25;;;;;;;9.82;5.38;;;;;;;8.06;64.51;99398.69;4973708;28;20031;-86
2023/12/05 04:52:51;;;;;;;9.15;4.75;;;;;;;8.15;65.73;99394.75;4971838;29;20050;-85
2023/12/05 04:55:16;;;;;;;10.73;5.50;;;;;;;8.20;63.73;99404.91;4922365;29;20491;-76
2023/12/05 04:57:42;;;;;;;9.35;5.47;;;;;;;8.17;63.12;99405.91;4938886;28;20039;-75
2023/12/05 05:00:09;;;;;;;11.05;5.57;;;;;;;8.15;62.36;99406.00;4937989;29;20101;-75
2023/12/05 05:02:34;;;;;;;11.45;5.72;;;;;;;8.13;61.96;99410.44;4938359;29;20047;-77
2023/12/05 05:05:00;;;;;;;11.35;6.13;;;;;;;8.12;61.38;99400.94;4938715;29;20115;-77
2023/12/05 05:07:25;;;;;;;10.10;5.78;;;;;;;8.11;60.99;99398.44;4937616;29;20130;-76
2023/12/05 05:09:51;;;;;;;12.50;5.75;;;;;;;8.08;60.93;99402.06;4921913;29;20106;-76
2023/12/05 05:12:17;;;;;;;10.85;6.00;;;;;;;8.08;60.67;99401.22;4923047;29;20097;-74
2023/12/05 05:14:43;;;;;;;10.25;5.88;;;;;;;8.06;60.31;99400.47;4939292;29;20050;-77
2023/12/05 05:17:08;;;;;;;10.13;6.03;;;;;;;8.06;60.17;99398.69;4923088;29;20137;-73
2023/12/05 05:19:34;;;;;;;9.38;5.90;;;;;;;8.05;59.76;99394.44;4923138;29;20042;-77
2023/12/05 05:22:00;;;;;;;9.80;6.03;;;;;;;8.05;59.41;99389.22;4923166;29;20043;-73
2023/12/05 05:24:25;;;;;;;10.90;6.15;;;;;;;8.06;59.61;99390.06;4954348;29;20091;-75
2023/12/05 05:26:54;;;;;;;11.38;5.97;;;;;;;8.04;59.04;99384.94;4954648;29;20023;-73
2023/12/05 05:29:19;;;;;;;11.73;6.35;;;;;;;8.06;59.11;99395.25;4939369;29;20038;-73
2023/12/05 05:31:45;;;;;;;9.65;6.50;;;;;;;8.03;58.94;99390.22;4938686;29;20410;-74
2023/12/05 05:34:10;;;;;;;10.40;6.07;;;;;;;8.00;59.46;99380.00;4955707;29;20043;-73
2023/12/05 05:36:36;;;;;;;12.18;6.22;;;;;;;8.02;59.08;99381.59;4938611;29;20023;-74
2023/12/05 05:39:01;;;;;;;10.35;6.55;;;;;;;8.03;59.09;99390.22;4938426;29;20067;-74
2023/12/05 05:41:27;;;;;;;11.32;6.32;;;;;;;8.01;58.77;99382.50;4937689;28;20118;-75
2023/12/05 05:43:53;;;;;;;12.40;6.45;;;;;;;7.95;58.68;99377.66;4982451;28;20550;-73
2023/12/05 05:46:18;;;;;;;12.02;6.93;;;;;;;8.01;58.84;99387.72;4976649;28;20031;-73
2023/12/05 05:48:44;;;;;;;13.05;6.60;;;;;;;8.00;58.69;99382.59;4971513;28;20039;-73
2023/12/05 05:51:09;;;;;;;13.40;7.43;;;;;;;8.01;58.38;99387.72;4973675;28;20491;-75
2023/12/05 05:53:35;;;;;;;14.23;7.72;;;;;;;8.00;58.27;99387.78;4989979;28;20047;-75
2023/12/05 05:56:00;;;;;;;13.35;7.78;;;;;;;7.99;58.53;99384.38;4974291;28;20050;-74
2023/12/05 05:58:26;;;;;;;14.55;8.18;;;;;;;7.97;58.57;99378.44;4978339;28;20058;-74
2023/12/05 06:00:51;;;;;;;14.50;8.32;;;;;;;7.96;58.70;99387.13;4970702;28;20027;-74
2023/12/05 06:03:17;;;;;;;13.57;8.07;;;;;;;7.92;58.23;99383.00;4954634;28;20043;-74
2023/12/05 06:05:42;;;;;;;15.80;8.70;;;;;;;7.94;58.48;99376.81;4953492;28;20035;-73
2023/12/05 06:08:08;;;;;;;13.77;8.02;;;;;;;7.95;58.57;99382.84;4970002;28;20155;-74
2023/12/05 06:10:35;;;;;;;14.63;7.68;;;;;;;7.91;58.32;99365.75;4969472;28;20476;-73
2023/12/05 06:13:00;;;;;;;14.73;7.90;;;;;;;7.96;58.73;99376.75;4953890;29;20050;-74
2023/12/05 06:15:26;;;;;;;13.10;8.50;;;;;;;7.92;58.50;99362.22;4937529;29;20429;-75
2023/12/05 06:17:51;;;;;;;12.93;8.43;;;;;;;7.96;58.52;99374.97;4954527;28;20066;-74
2023/12/05 06:20:17;;;;;;;17.02;8.75;;;;;;;7.97;58.86;99365.44;4969942;28;20110;-75
2023/12/05 06:22:43;;;;;;;15.15;8.70;;;;;;;7.91;58.60;99358.78;4953945;28;20388;-75
2023/12/05 06:25:08;;;;;;;15.45;8.48;;;;;;;8.01;58.71;99366.09;4954417;29;20399;-74
2023/12/05 06:27:34;;;;;;;13.18;8.50;;;;;;;8.03;58.99;99366.84;4953903;29;20035;-74
2023/12/05 06:29:59;;;;;;;15.30;8.70;;;;;;;8.05;58.81;99359.78;4937778;29;20027;-74
2023/12/05 06:32:25;;;;;;;16.20;9.63;;;;;;;8.02;58.33;99354.75;4968810;28;20039;-73
2023/12/05 06:34:50;;;;;;;14.77;8.70;;;;;;;8.21;62.02;99359.78;4954618;29;20482;-72
2023/12/05 06:37:16;;;;;;;13.80;8.13;;;;;;;8.25;62.01;99353.47;4937754;29;20035;-73
2023/12/05 06:39:41;;;;;;;14.75;7.82;;;;;;;8.29;61.71;99361.00;4953752;28;20035;-75
2023/12/05 06:42:07;;;;;;;15.63;7.80;;;;;;;8.24;61.41;99356.97;4937684;29;20098;-79
2023/12/05 06:44:32;;;;;;;9.50;5.82;;;;;;;8.47;69.28;99356.53;4937777;29;20432;-79
2023/12/05 06:46:58;;;;;;;15.05;6.00;;;;;;;8.63;67.24;99364.31;4969974;28;20031;-77
2023/12/05 06:49:23;;;;;;;9.10;4.65;;;;;;;8.80;70.04;99354.66;4953527;29;20065;-71
2023/12/05 06:51:55;;;;;;;16.35;4.95;;;;;;;9.27;75.12;99363.19;4936520;29;20046;-73
2023/12/05 06:54:21;;;;;;;9.23;4.90;;;;;;;9.24;70.71;99356.38;4934607;29;20111;-72
2023/12/05 06:56:47;;;;;;;8.80;4.95;;;;;;;9.13;68.37;99356.19;4953092;28;20027;-74
2023/12/05 06:59:14;;;;;;;9.00;4.93;;;;;;;9.08;67.51;99345.19;4969620;28;20380;-74
2023/12/05 07:01:39;;;;;;;8.80;4.50;;;;;;;9.05;66.88;99352.28;4969023;28;20037;-73
2023/12/05 07:04:05;;;;;;;8.52;5.32;;;;;;;9.00;66.60;99343.06;4953216;29;20027;-74
2023/12/05 07:06:31;;;;;;;12.15;5.55;;;;;;;8.97;66.11;99335.44;4931609;28;20036;-74
2023/12/05 07:08:56;;;;;;;8.95;5.30;;;;;;;8.91;66.16;99333.22;4948345;28;20051;-74
2023/12/05 07:11:25;;;;;;;10.75;5.82;;;;;;;8.81;65.48;99322.50;4935486;29;20043;-79
2023/12/05 07:13:50;;;;;;;;;;;;;;;8.82;65.13;99331.97;4968921;28;20035;-76
2023/12/05 07:16:16;;;;;;;8.88;5.40;;;;;;;8.76;64.94;99335.78;4951836;29;19914;-75
2023/12/05 07:18:41;;;;;;;8.52;5.10;;;;;;;8.74;64.83;99334.19;4948832;28;20059;-76
2023/12/05 07:21:08;;;;;;;11.40;4.43;;;;;;;8.98;72.23;99339.69;4934048;29;20062;-76
2023/12/05 07:23:34;;;;;;;8.68;4.28;;;;;;;9.18;73.52;99333.31;4936510;28;20027;-76
2023/12/05 07:25:59;;;;;;;6.63;4.70;;;;;;;9.14;70.66;99327.44;4953452;29;20110;-74
2023/12/05 07:28:25;;;;;;;7.10;4.60;;;;;;;9.09;68.95;99324.25;4936879;29;20495;-75
2023/12/05 07:30:51;;;;;;;8.77;5.05;;;;;;;9.10;67.77;99332.94;4936899;29;20537;-75
2023/12/05 07:33:16;;;;;;;8.13;5.45;;;;;;;9.04;66.99;99331.53;4937433;29;20577;-75
2023/12/05 07:35:43;;;;;;;10.63;5.75;;;;;;;9.02;66.97;99334.22;4952637;29;20027;-79
2023/12/05 07:38:09;;;;;;;7.03;4.28;;;;;;;9.38;74.66;99339.91;4926042;29;20035;-76
2023/12/05 07:40:34;;;;;;;7.18;4.60;;;;;;;9.50;74.63;99331.31;4936276;28;20035;-77
2023/12/05 07:43:00;;;;;;;8.57;4.43;;;;;;;9.57;74.03;99332.59;4951260;28;20050;-76
2023/12/05 07:45:26;;;;;;;8.02;4.07;;;;;;;10.31;75.45;99340.09;4951959;28;20032;-79
2023/12/05 07:47:52;;;;;;;5.53;3.70;;;;;;;10.72;72.22;99335.69;4950173;29;20114;-76
2023/12/05 07:50:18;;;;;;;6.13;4.10;;;;;;;10.75;70.17;99345.94;4953639;28;20039;-73
2023/12/05 07:52:50;;;;;;;6.28;4.10;;;;;;;10.80;69.27;99333.41;4936230;29;20440;-77
2023/12/05 07:55:19;;;;;;;6.97;3.45;;;;;;;11.04;69.62;99341.34;4952198;29;20059;-76
2023/12/05 07:57:44;;;;;;;;;;;;;;;10.94;67.30;99348.13;4937018;29;20030;-75
2023/12/05 08:00:16;;;;;;;9.07;4.75;;;;;;;10.68;66.02;99351.56;4953789;28;19918;-77
2023/12/05 08:02:42;;;;;;;9.85;5.82;;;;;;;10.44;65.38;99348.81;4937932;29;20483;-78
2023/12/05 08:05:08;;;;;;;9.65;6.00;;;;;;;10.26;65.31;99352.59;4936844;29;20130;-74
2023/12/05 08:07:33;;;;;;;5.32;2.78;;;;;;;10.45;70.52;99342.66;4953575;28;20109;-80
2023/12/05 08:09:59;;;;;;;8.05;3.53;;;;;;;11.35;69.74;99340.09;4963813;28;20039;-79
2023/12/05 08:12:24;;;;;;;8.35;3.97;;;;;;;11.88;67.34;99345.03;4945339;29;20047;-79
2023/12/05 08:14:50;;;;;;;10.60;4.75;;;;;;;12.30;64.22;99350.75;4934965;29;20102;-81
2023/12/05 08:17:15;;;;;;;12.23;5.72;;;;;;;12.60;62.29;99340.72;4954169;29;20035;-79
2023/12/05 08:19:41;;;;;;;15.00;6.03;;;;;;;12.81;60.47;99333.88;4952045;29;20075;-75
2023/12/05 08:22:06;;;;;;;15.98;6.05;;;;;;;13.09;59.18;99342.22;4952214;28;20050;-73
2023/12/05 08:24:32;;;;;;;15.23;6.70;;;;;;;13.28;57.95;99340.81;4951983;29;20039;-75
2023/12/05 08:26:58;;;;;;;17.23;6.78;;;;;;;13.38;57.37;99326.06;4968182;28;20046;-75
2023/12/05 08:29:24;;;;;;;17.25;7.07;;;;;;;13.39;57.20;99335.59;4953271;28;20114;-77
2023/12/05 08:31:50;;;;;;;25.15;9.20;;;;;;;13.03;56.92;99333.06;4939986;29;20478;-77
2023/12/05 08:34:15;;;;;;;18.83;7.93;;;;;;;12.61;57.11;99326.69;4940489;29;20070;-75
2023/12/05 08:36:45;;;;;;;18.13;8.75;;;;;;;12.20;57.44;99323.56;4954349;29;20441;-82
2023/12/05 08:39:11;;;;;;;18.35;9.75;;;;;;;11.77;58.07;99317.03;4948140;28;20104;-82
2023/12/05 08:41:37;;;;;;;18.95;9.80;;;;;;;11.49;58.76;99323.41;4940025;29;20031;-81
2023/12/05 08:44:02;;;;;;;16.90;10.45;;;;;;;11.22;58.99;99311.31;4939851;29;20038;-81
2023/12/05 08:46:29;;;;;;;20.83;10.48;;;;;;;10.89;59.15;99298.81;4939777;29;20039;-80
2023/12/05 08:48:54;;;;;;;28.10;10.95;;;;;;;10.76;59.70;99308.44;4940068;29;20114;-81
2023/12/05 08:51:22;;;;;;;16.48;10.38;;;;;;;10.56;60.11;99308.00;4940669;29;20146;-80
2023/12/05 08:53:48;;;;;;;21.90;10.70;;;;;;;10.40;60.31;99300.34;4940320;29;20074;-77
2023/12/05 08:56:13;;;;;;;19.52;11.32;;;;;;;10.14;60.41;99291.63;4955283;29;20031;-77
2023/12/05 08:58:39;;;;;;;25.00;11.70;;;;;;;10.05;60.83;99305.28;4955491;29;20038;-79
2023/12/05 09:01:04;;;;;;;24.58;12.20;;;;;;;9.89;61.17;99297.59;4955330;29;20035;-78
2023/12/05 09:03:30;;;;;;;20.95;11.90;;;;;;;9.80;61.35;99298.19;4972404;28;20043;-81
2023/12/05 09:05:55;;;;;;;17.63;11.15;;;;;;;9.72;61.35;99293.47;4955734;29;20042;-79
2023/12/05 09:08:21;;;;;;;19.98;12.63;;;;;;;9.63;61.43;99294.91;4955180;29;20051;-79
2023/12/05 09:10:47;;;;;;;19.85;11.80;;;;;;;9.55;61.43;99284.09;4923384;29;20043;-81
2023/12/05 09:13:14;;;;;;;22.17;12.32;;;;;;;9.52;61.92;99279.06;4938855;29;20035;-83
2023/12/05 09:15:39;;;;;;;20.05;10.70;;;;;;;9.48;61.80;99283.66;4923824;29;20419;-83
2023/12/05 09:18:05;;;;;;;17.80;10.73;;;;;;;9.40;61.74;99268.50;4955734;28;20031;-80
2023/12/05 09:20:32;;;;;;;21.08;12.23;;;;;;;9.41;61.85;99267.59;4925634;29;20490;-82
2023/12/05 09:22:58;;;;;;;18.73;12.05;;;;;;;9.40;61.77;99263.28;4957125;29;20395;-83
2023/12/05 09:25:25;;;;;;;22.08;11.55;;;;;;;9.40;61.84;99265.06;4955954;28;20051;-82
2023/12/05 09:27:51;;;;;;;17.63;10.90;;;;;;;9.33;61.78;99256.81;4943425;29;20038;-91
2023/12/05 09:30:17;;;;;;;20.58;12.25;;;;;;;9.33;61.68;99254.19;4960443;28;20039;-86
2023/12/05 09:32:45;;;;;;;21.15;5.75;;;;;;;9.60;70.40;99253.38;4962117;29;20031;-86
2023/12/05 09:35:11;;;;;;;13.10;7.10;;;;;;;9.78;70.86;99256.56;4964805;29;20041;-82
2023/12/05 09:37:37;;;;;;;14.85;7.85;;;;;;;9.77;68.49;99245.31;4946868;29;20031;-87
2023/12/05 09:40:04;;;;;;;12.90;7.80;;;;;;;9.72;67.01;99239.53;4949714;28;20039;-88
2023/12/05 09:42:30;;;;;;;18.15;9.00;;;;;;;9.67;66.26;99233.78;4961380;29;20028;-87
2023/12/05 09:44:57;;;;;;;17.17;9.60;;;;;;;9.59;65.54;99236.91;4961951;29;20046;-91
2023/12/05 09:47:25;;;;;;;16.50;10.30;;;;;;;9.57;64.97;99232.72;4946193;29;20550;-87
2023/12/05 09:49:55;;;;;;;21.43;10.47;;;;;;;9.54;64.67;99222.50;4960184;29;20035;-87
2023/12/05 09:52:22;;;;;;;18.58;10.70;;;;;;;9.52;64.11;99227.81;4959491;28;20039;-89
2023/12/05 09:54:47;;;;;;;17.77;11.32;;;;;;;9.47;64.11;99218.59;4957067;29;20071;-88
2023/12/05 09:57:14;;;;;;;21.33;12.15;;;;;;;9.55;63.79;99232.84;4959105;29;20227;-87
2023/12/05 09:59:40;;;;;;;20.25;11.35;;;;;;;9.53;63.33;99216.44;4957975;29;20027;-86
2023/12/05 10:02:05;;;;;;;17.65;11.93;;;;;;;9.57;63.06;99212.72;4958897;29;20038;-86
2023/12/05 10:04:34;;;;;;;20.70;11.35;;;;;;;9.54;62.96;99207.69;4957600;29;20057;-86
2023/12/05 10:07:00;;;;;;;21.02;11.70;;;;;;;9.53;62.59;99198.19;4958697;29;20031;-86
2023/12/05 10:09:28;;;;;;;22.60;12.50;;;;;;;9.52;62.46;99185.25;4941651;29;20050;-86
2023/12/05 10:11:54;;;;;;;;;;;;;;;9.56;62.28;99191.97;4959443;28;20043;-88
2023/12/05 10:14:21;;;;;;;22.90;12.63;;;;;;;9.54;62.17;99181.63;4957730;28;19917;-86
2023/12/05 10:16:46;;;;;;;22.42;13.32;;;;;;;9.51;62.13;99166.19;4943210;29;20550;-88
2023/12/05 10:19:12;;;;;;;22.00;13.27;;;;;;;9.62;61.82;99175.91;4958965;29;20117;-87
2023/12/05 10:21:37;;;;;;;23.05;13.75;;;;;;;9.61;61.68;99153.38;4944089;29;20035;-85
2023/12/05 10:24:03;;;;;;;23.80;14.63;;;;;;;9.70;61.37;99165.00;4960070;28;20423;-87
2023/12/05 10:26:29;;;;;;;21.35;13.18;;;;;;;9.71;61.17;99151.84;4956873;29;20038;-90
2023/12/05 10:28:57;;;;;;;23.40;13.55;;;;;;;9.79;60.97;99151.34;4960265;28;20055;-85
2023/12/05 10:31:23;;;;;;;;;;;;;;;9.83;60.83;99144.16;4961764;29;20042;-86
2023/12/05 10:33:49;;;;;;;21.70;13.80;;;;;;;9.83;60.86;99149.38;4961116;28;19945;-89
2023/12/05 10:36:15;;;;;;;21.00;14.30;;;;;;;9.84;60.49;99145.84;4974574;28;20042;-88
2023/12/05 10:38:45;;;;;;;22.40;14.65;;;;;;;9.82;60.41;99135.50;4975147;28;20493;-88
2023/12/05 10:41:11;;;;;;;22.17;14.10;;;;;;;9.83;60.39;99137.16;4957611;28;20035;-88
2023/12/05 10:43:37;;;;;;;26.35;15.57;;;;;;;9.77;60.21;99128.00;4961177;29;20086;-88
2023/12/05 10:46:03;;;;;;;23.20;13.82;;;;;;;9.77;60.32;99127.13;4959289;28;20427;-90
2023/12/05 10:48:29;;;;;;;23.00;14.07;;;;;;;9.78;60.44;99126.22;4942395;29;20066;-87
2023/12/05 10:50:55;;;;;;;22.52;13.13;;;;;;;9.78;60.38;99121.81;4956120;29;20110;-88
2023/12/05 10:53:21;;;;;;;25.65;14.25;;;;;;;9.83;59.69;99115.47;4972311;28;20499;-86
2023/12/05 10:55:46;;;;;;;22.77;13.90;;;;;;;9.83;59.70;99111.09;4972514;28;20062;-88
2023/12/05 10:58:12;;;;;;;22.65;14.25;;;;;;;9.82;59.72;99101.63;4957982;29;20517;-87
2023/12/05 11:00:38;;;;;;;21.00;14.02;;;;;;;9.89;59.56;99099.41;4956033;28;20042;-88
2023/12/05 11:03:03;;;;;;;21.83;13.80;;;;;;;9.88;59.31;99097.75;4955295;28;20031;-88
2023/12/05 11:05:35;;;;;;;25.45;14.63;;;;;;;9.89;59.48;99099.41;4971980;28;20151;-88
2023/12/05 11:08:01;;;;;;;23.10;14.95;;;;;;;9.92;59.26;99091.38;4955307;29;20031;-88
2023/12/05 11:10:27;;;;;;;23.40;14.73;;;;;;;9.96;59.39;99092.84;4956772;28;20130;-90
2023/12/05 11:12:53;;;;;;;25.38;15.18;;;;;;;10.00;59.09;99085.66;4958911;29;20035;-89
2023/12/05 11:15:25;;;;;;;25.63;14.73;;;;;;;10.08;58.59;99088.56;4941779;29;20035;-89
2023/12/05 11:17:57;;;;;;;23.90;14.63;;;;;;;10.10;58.67;99074.50;4957487;29;20035;-88
2023/12/05 11:20:37;;;;;;;24.58;15.15;;;;;;;10.11;58.75;99077.94;4955646;28;20110;-88
2023/12/05 11:23:47;;;;;;;25.08;15.13;;;;;;;10.11;58.74;99077.94;4958318;28;20054;-91
2023/12/05 11:26:31;;;;;;;27.00;15.80;;;;;;;10.13;58.75;99076.84;4982045;28;20097;-87
2023/12/05 11:29:05;;;;;;;28.48;15.57;;;;;;;10.13;58.72;99063.00;4980740;28;20041;-90
2023/12/05 11:31:36;;;;;;;25.98;15.63;;;;;;;10.15;58.71;99074.16;4964576;28;20150;-88